Time;durP1;ratioP1;P1;durP2;ratioP2;P2;SDS_P1;SDS_P2;PMS_P1;PMS_P2;Temp;Humidity;BMP_temperature;BMP_pressure;BME280_temperature;BME280_humidity;BME280_pressure;Samples;Min_cycle;Max_cycle;Signal;HPM_P1;HPM_P2
2023/07/02 00:00:23;;;;;;;;;41.75;35.50;;;;;19.98;56.98;100370.53;5055981;28;45494;-73
2023/07/02 00:02:48;;;;;;;;;43.50;35.75;;;;;19.93;56.87;100379.91;5045827;28;46303;-69
2023/07/02 00:05:14;;;;;;;;;34.50;32.25;;;;;19.85;57.45;100380.50;5019582;28;45466;-73
2023/07/02 00:07:39;;;;;;;;;35.75;33.00;;;;;19.79;57.74;100386.34;5022754;28;45208;-73
2023/07/02 00:10:05;;;;;;;;;42.00;35.00;;;;;19.67;57.97;100375.72;5040676;28;45197;-77
2023/07/02 00:12:30;;;;;;;;;38.00;33.25;;;;;19.49;57.94;100358.56;5038891;28;45283;-72
2023/07/02 00:14:56;;;;;;;;;35.00;31.50;;;;;19.35;58.16;100338.31;5037222;28;45287;-72
2023/07/02 00:17:21;;;;;;;;;41.25;35.50;;;;;19.54;58.32;100378.53;5036349;28;45366;-74
2023/07/02 00:19:51;;;;;;;;;35.00;32.75;;;;;19.41;59.11;100373.34;5035683;28;45535;-76
2023/07/02 00:22:17;;;;;;;;;34.50;31.50;;;;;19.42;59.35;100374.19;5035809;28;46307;-76
2023/07/02 00:24:42;;;;;;;;;36.25;32.00;;;;;19.14;59.18;100341.75;5036244;28;45421;-71
2023/07/02 00:27:08;;;;;;;;;41.50;35.50;;;;;19.27;59.64;100368.28;5018242;28;45416;-70
2023/07/02 00:29:33;;;;;;;;;35.75;31.75;;;;;19.20;59.91;100375.94;5036665;28;45560;-70
2023/07/02 00:32:01;;;;;;;;;30.00;28.00;;;;;19.02;59.72;100362.25;5036552;28;45961;-71
2023/07/02 00:34:27;;;;;;;;;32.50;28.75;;;;;18.67;60.44;100325.88;5036445;28;45339;-74
2023/07/02 00:36:52;;;;;;;;;33.00;31.25;;;;;18.91;61.00;100367.53;5036996;28;45263;-69
2023/07/02 00:39:18;;;;;;;;;39.50;33.50;;;;;18.81;61.17;100362.94;5036266;28;45565;-72
2023/07/02 00:41:46;;;;;;;;;34.75;32.50;;;;;18.74;61.17;100355.56;5035245;28;45532;-76
2023/07/02 00:44:13;;;;;;;;;27.25;27.25;;;;;18.75;61.65;100368.75;5035259;28;45356;-74
2023/07/02 00:46:38;;;;;;;;;36.75;33.50;;;;;18.68;61.63;100364.88;5032282;28;45478;-72
2023/07/02 00:49:04;;;;;;;;;31.50;29.00;;;;;18.68;62.00;100365.72;5058943;28;45248;-75
2023/07/02 00:51:30;;;;;;;;;35.50;32.50;;;;;18.54;62.14;100368.59;5037094;28;47323;-76
2023/07/02 00:53:57;;;;;;;;;38.00;33.50;;;;;18.56;62.23;100374.69;5058419;28;45218;-73
2023/07/02 00:56:24;;;;;;;;;32.50;30.50;;;;;18.51;62.62;100385.69;5046236;28;45342;-76
2023/07/02 00:58:51;;;;;;;;;36.00;33.50;;;;;18.49;63.08;100381.41;5048715;28;45324;-74
2023/07/02 01:01:22;;;;;;;;;40.75;33.75;;;;;18.46;63.33;100379.00;5034716;28;45271;-78
2023/07/02 01:03:54;;;;;;;;;36.25;32.00;;;;;18.44;63.29;100376.47;5032249;28;45373;-80
2023/07/02 01:06:25;;;;;;;;;37.75;33.25;;;;;18.39;63.43;100370.66;5030140;28;45205;-81
2023/07/02 01:09:00;;;;;;;;;39.25;34.50;;;;;18.34;63.72;100380.81;5044382;28;45391;-78
2023/07/02 01:11:50;;;;;;;;;30.25;30.00;;;;;18.36;63.82;100373.53;5044635;28;45271;-74
2023/07/02 01:14:15;;;;;;;;;37.75;33.25;;;;;18.34;63.95;100378.13;5045534;28;44575;-78
2023/07/02 01:16:43;;;;;;;;;39.75;34.50;;;;;18.30;64.43;100388.16;5047634;28;45167;-77
2023/07/02 01:19:18;;;;;;;;;42.00;33.25;;;;;18.21;64.82;100389.72;5044269;28;44889;-82
2023/07/02 01:21:45;;;;;;;;;40.50;32.25;;;;;18.18;65.13;100392.63;5045368;28;46336;-73
2023/07/02 01:24:11;;;;;;;;;42.50;33.50;;;;;18.12;65.46;100387.75;5065596;28;45375;-78
2023/07/02 01:26:37;;;;;;;;;39.00;34.25;;;;;18.29;65.43;100389.13;5065771;28;45417;-79
2023/07/02 01:29:14;;;;;;;;;34.50;30.75;;;;;18.18;65.52;100391.75;5063508;28;45352;-76
2023/07/02 01:31:39;;;;;;;;;34.50;30.75;;;;;18.10;65.74;100390.50;5041935;28;45190;-70
2023/07/02 01:34:07;;;;;;;;;42.50;34.75;;;;;18.12;65.67;100393.06;5044608;28;45233;-70
2023/07/02 01:36:33;;;;;;;;;37.50;33.25;;;;;18.00;66.25;100393.94;5041466;28;45197;-71
2023/07/02 01:38:58;;;;;;;;;38.75;35.25;;;;;17.93;66.46;100396.22;5042446;28;45566;-71
2023/07/02 01:41:24;;;;;;;;;23.75;23.75;;;;;17.90;66.85;100389.31;5042725;28;45325;-70
2023/07/02 01:43:49;;;;;;;;;40.75;33.75;;;;;18.02;67.00;100395.56;5040517;28;45352;-72
2023/07/02 01:46:15;;;;;;;;;33.75;30.00;;;;;17.80;67.28;100393.59;5052624;28;45727;-68
2023/07/02 01:48:40;;;;;;;;;39.75;32.75;;;;;17.78;67.74;100391.06;5060843;28;45463;-71
2023/07/02 01:51:05;;;;;;;;;34.50;32.00;;;;;17.75;68.01;100401.06;5057843;28;55290;-76
2023/07/02 01:53:31;;;;;;;;;30.00;29.25;;;;;17.70;68.19;100388.13;5059641;28;45372;-75
2023/07/02 01:55:56;;;;;;;;;41.25;36.00;;;;;17.71;68.35;100394.28;5038840;28;45736;-72
2023/07/02 01:58:22;;;;;;;;;33.75;32.25;;;;;17.70;68.43;100400.56;5046497;28;44880;-72
2023/07/02 02:00:47;;;;;;;;;35.25;31.50;;;;;17.72;68.59;100388.00;5042413;28;46011;-70
2023/07/02 02:03:14;;;;;;;;;30.25;28.50;;;;;17.75;68.72;100395.75;5040552;28;45466;-72
2023/07/02 02:05:39;;;;;;;;;32.50;30.50;;;;;17.68;68.72;100384.75;5039099;28;45343;-69
2023/07/02 02:08:05;;;;;;;;;32.00;29.00;;;;;17.69;69.11;100391.75;5023734;28;45444;-76
2023/07/02 02:10:30;;;;;;;;;36.50;31.25;;;;;17.73;69.34;100393.22;5022010;28;46520;-70
2023/07/02 02:12:55;;;;;;;;;36.75;29.75;;;;;17.66;69.84;100384.84;5039928;28;45334;-79
2023/07/02 02:15:21;;;;;;;;;36.75;32.50;;;;;17.70;69.78;100397.91;5023145;28;45257;-69
2023/07/02 02:17:46;;;;;;;;;29.50;27.75;;;;;17.63;69.74;100381.56;5041511;28;45495;-70
2023/07/02 02:20:12;;;;;;;;;30.00;28.00;;;;;17.65;70.11;100390.28;5044024;28;46242;-75
2023/07/02 02:22:38;;;;;;;;;24.50;24.50;;;;;17.64;70.25;100388.59;5041290;28;45265;-69
2023/07/02 02:25:04;;;;;;;;;29.25;26.25;;;;;17.64;70.49;100389.41;5044087;28;45283;-78
2023/07/02 02:27:29;;;;;;;;;31.00;30.00;;;;;17.72;70.57;100399.50;5043113;28;45667;-71
2023/07/02 02:29:54;;;;;;;;;27.75;26.25;;;;;17.80;70.56;100404.25;5023033;28;47376;-77
2023/07/02 02:32:21;;;;;;;;;31.00;28.75;;;;;17.86;70.41;100400.31;5021994;28;46070;-78
2023/07/02 02:34:47;;;;;;;;;35.25;31.75;;;;;17.78;70.26;100380.44;5042871;28;45364;-80
2023/07/02 02:37:12;;;;;;;;;32.00;30.00;;;;;17.88;70.29;100399.22;5044073;28;45281;-77
2023/07/02 02:39:38;;;;;;;;;29.00;27.25;;;;;17.86;70.38;100397.63;5045183;28;46085;-71
2023/07/02 02:42:04;;;;;;;;;32.00;30.00;;;;;17.77;70.41;100385.84;5044073;28;44769;-79
2023/07/02 02:44:29;;;;;;;;;28.00;25.50;;;;;17.71;70.71;100386.31;5047018;28;45864;-75
2023/07/02 02:46:55;;;;;;;;;26.75;26.75;;;;;17.67;71.00;100401.66;5046768;28;45340;-79
2023/07/02 02:49:20;;;;;;;;;31.75;30.50;;;;;17.62;71.10;100396.66;5046054;28;46276;-78
2023/07/02 02:51:46;;;;;;;;;26.25;23.75;;;;;17.61;71.25;100394.13;5039060;28;45293;-75
2023/07/02 02:54:11;;;;;;;;;23.25;23.00;;;;;17.59;71.50;100396.88;5039078;28;45330;-74
2023/07/02 02:56:36;;;;;;;;;30.00;30.00;;;;;17.67;71.45;100399.00;5037636;28;45578;-70
2023/07/02 02:59:02;;;;;;;;;32.75;29.75;;;;;17.63;71.71;100398.34;5050116;28;45346;-71
2023/07/02 03:01:29;;;;;;;;;35.50;32.25;;;;;17.59;71.74;100402.19;5046466;28;45442;-71
2023/07/02 03:03:55;;;;;;;;;24.50;24.50;;;;;17.57;71.74;100400.63;5021331;28;45296;-71
2023/07/02 03:06:20;;;;;;;;;26.75;26.75;;;;;17.54;72.18;100404.34;5041952;28;45444;-72
2023/07/02 03:08:45;;;;;;;;;25.25;24.75;;;;;17.51;72.12;100401.91;5041680;28;46076;-68
2023/07/02 03:11:11;;;;;;;;;31.25;29.50;;;;;17.39;72.39;100390.34;5041649;28;45327;-70
2023/07/02 03:13:36;;;;;;;;;26.75;26.75;;;;;17.46;72.54;100402.22;5021744;28;45454;-74
2023/07/02 03:16:02;;;;;;;;;28.50;27.00;;;;;17.45;72.54;100407.69;5038423;28;45419;-73
2023/07/02 03:18:27;;;;;;;;;28.25;24.50;;;;;17.44;72.67;100413.94;5057706;28;45404;-73
2023/07/02 03:20:53;;;;;;;;;31.50;29.50;;;;;17.40;72.98;100404.50;5057779;28;45310;-69
2023/07/02 03:23:18;;;;;;;;;36.75;29.75;;;;;17.35;73.30;100408.34;5057556;28;45315;-74
2023/07/02 03:25:43;;;;;;;;;30.00;30.00;;;;;17.36;73.10;100407.38;5038902;28;45478;-68
2023/07/02 03:28:09;;;;;;;;;26.00;26.00;;;;;17.30;73.41;100394.53;5056359;28;46712;-68
2023/07/02 03:30:34;;;;;;;;;29.75;28.75;;;;;17.34;73.36;100419.94;5055340;28;45269;-71
2023/07/02 03:33:00;;;;;;;;;27.50;26.75;;;;;17.28;73.50;100403.56;5036984;28;45415;-70
2023/07/02 03:35:25;;;;;;;;;28.25;27.00;;;;;17.31;73.39;100412.19;5054598;28;45647;-71
2023/07/02 03:37:50;;;;;;;;;30.00;27.75;;;;;17.29;73.86;100415.88;5054150;28;46057;-73
2023/07/02 03:40:16;;;;;;;;;38.00;33.00;;;;;17.19;74.12;100410.41;5055372;28;45324;-75
2023/07/02 03:42:43;;;;;;;;;30.25;30.00;;;;;17.25;73.96;100422.38;5056565;28;45444;-75
2023/07/02 03:45:08;;;;;;;;;28.25;24.00;;;;;17.20;74.21;100414.75;5057046;28;45745;-70
2023/07/02 03:47:34;;;;;;;;;33.25;30.50;;;;;17.27;74.28;100431.09;5040392;28;46889;-70
2023/07/02 03:49:59;;;;;;;;;25.25;25.25;;;;;17.21;74.46;100441.22;5043757;28;45644;-73
2023/07/02 03:52:25;;;;;;;;;26.75;26.25;;;;;17.18;74.80;100433.44;5061309;28;45362;-73
2023/07/02 03:54:50;;;;;;;;;22.25;21.25;;;;;17.08;74.81;100430.59;5057226;28;45405;-70
2023/07/02 03:57:15;;;;;;;;;29.00;29.00;;;;;17.14;75.32;100441.75;5057238;28;45466;-70
2023/07/02 03:59:41;;;;;;;;;16.75;16.75;;;;;17.16;75.53;100447.81;5056713;28;45435;-70
2023/07/02 04:02:06;;;;;;;;;31.25;26.50;;;;;17.13;75.40;100440.91;5056171;28;45336;-69
2023/07/02 04:04:31;;;;;;;;;27.75;25.00;;;;;17.17;75.35;100455.66;5056297;28;45346;-72
2023/07/02 04:06:57;;;;;;;;;31.25;27.75;;;;;17.15;75.62;100451.44;5055690;28;46622;-72
2023/07/02 04:09:22;;;;;;;;;28.25;26.50;;;;;17.13;75.78;100456.00;5055767;28;45517;-73
2023/07/02 04:11:47;;;;;;;;;30.00;29.00;;;;;17.11;76.00;100452.59;5056213;28;45314;-73
2023/07/02 04:14:13;;;;;;;;;24.25;23.00;;;;;17.09;76.22;100450.03;5056480;28;45381;-71
2023/07/02 04:16:38;;;;;;;;;23.25;23.25;;;;;17.03;76.19;100442.50;5055574;28;46154;-74
2023/07/02 04:19:03;;;;;;;;;30.25;29.00;;;;;17.07;76.20;100452.81;5057096;28;45300;-70
2023/07/02 04:21:30;;;;;;;;;29.75;28.25;;;;;17.08;76.30;100451.88;5057938;28;45505;-71
2023/07/02 04:23:55;;;;;;;;;27.50;27.50;;;;;17.18;76.29;100461.84;5057947;28;45247;-71
2023/07/02 04:26:21;;;;;;;;;29.00;28.00;;;;;17.23;76.05;100462.38;5056995;28;46035;-71
2023/07/02 04:28:46;;;;;;;;;25.00;25.00;;;;;17.25;75.91;100468.44;5061155;28;45259;-71
2023/07/02 04:31:11;;;;;;;;;35.00;31.50;;;;;17.31;75.74;100461.81;5043400;28;46768;-70
2023/07/02 04:33:37;;;;;;;;;25.75;25.50;;;;;17.04;75.63;100414.97;5060465;28;45533;-72
2023/07/02 04:36:03;;;;;;;;;26.25;24.50;;;;;17.39;75.30;100459.47;5061570;28;45418;-74
2023/07/02 04:38:29;;;;;;;;;25.50;25.50;;;;;17.46;75.11;100467.88;5060586;28;45316;-77
2023/07/02 04:40:57;;;;;;;;;28.00;27.00;;;;;17.54;75.11;100478.81;5059679;28;45173;-72
2023/07/02 04:43:23;;;;;;;;;27.25;26.00;;;;;17.59;74.96;100476.66;5063017;28;45526;-73
2023/07/02 04:45:49;;;;;;;;;27.25;25.75;;;;;17.67;74.61;100470.81;5063215;28;46232;-73
2023/07/02 04:48:14;;;;;;;;;24.00;22.00;;;;;17.80;74.46;100473.41;5059624;28;45351;-75
2023/07/02 04:50:39;;;;;;;;;25.00;23.00;;;;;17.91;74.15;100470.00;5059123;28;45331;-74
2023/07/02 04:53:04;;;;;;;;;26.25;25.75;;;;;18.05;73.57;100475.19;5041505;28;45570;-70
2023/07/02 04:55:30;;;;;;;;;30.00;29.25;;;;;18.15;73.30;100466.50;5061417;28;65675;-71
2023/07/02 04:57:55;;;;;;;;;26.25;25.50;;;;;18.25;72.86;100478.19;5059065;28;45327;-71
2023/07/02 05:00:22;;;;;;;;;27.50;26.25;;;;;18.33;72.14;100482.94;5059145;28;45242;-71
2023/07/02 05:02:47;;;;;;;;;17.75;17.75;;;;;18.37;71.85;100473.75;5058728;28;45411;-68
2023/07/02 05:05:12;;;;;;;;;23.50;23.00;;;;;18.30;71.80;100475.19;5040024;28;47162;-69
2023/07/02 05:07:40;;;;;;;;;25.75;24.25;;;;;18.18;71.83;100467.16;5058964;28;45250;-70
2023/07/02 05:10:06;;;;;;;;;27.50;23.50;;;;;18.12;72.03;100474.72;5040298;28;45311;-70
2023/07/02 05:12:31;;;;;;;;;27.75;26.50;;;;;18.03;72.23;100476.28;5058331;28;45387;-73
2023/07/02 05:14:56;;;;;;;;;30.50;30.25;;;;;18.05;72.56;100482.34;5058709;28;46188;-76
2023/07/02 05:17:22;;;;;;;;;23.00;21.75;;;;;18.08;72.66;100466.13;5058966;28;45325;-72
2023/07/02 05:19:47;;;;;;;;;19.75;19.75;;;;;18.22;72.10;100478.41;5058114;28;45334;-72
2023/07/02 05:22:12;;;;;;;;;21.50;21.50;;;;;18.30;71.84;100470.69;5059253;28;45719;-72
2023/07/02 05:24:38;;;;;;;;;22.75;22.00;;;;;18.43;71.88;100473.31;5059875;28;46192;-72
2023/07/02 05:27:04;;;;;;;;;25.25;22.25;;;;;18.60;71.04;100471.16;5058741;28;46002;-74
2023/07/02 05:29:30;;;;;;;;;25.75;23.50;;;;;18.92;70.97;100475.84;5024333;28;45344;-71
2023/07/02 05:31:55;;;;;;;;;24.00;23.00;;;;;19.27;69.65;100480.28;5059607;28;45241;-70
2023/07/02 05:34:20;;;;;;;;;21.75;21.75;;;;;19.47;68.55;100483.19;5059516;28;45235;-68
2023/07/02 05:36:46;;;;;;;;;26.00;23.00;;;;;19.63;67.79;100482.84;5057555;28;45231;-71
2023/07/02 05:39:12;;;;;;;;;22.75;20.50;;;;;19.82;66.97;100485.72;5057572;28;45229;-71
2023/07/02 05:41:38;;;;;;;;;18.00;18.00;;;;;19.91;66.71;100488.63;5058044;28;45587;-70
2023/07/02 05:44:03;;;;;;;;;16.00;15.50;;;;;19.99;66.40;100486.19;5057786;28;46510;-71
2023/07/02 05:46:28;;;;;;;;;19.25;19.25;;;;;20.25;65.83;100494.72;5058116;28;45358;-71
2023/07/02 05:48:57;;;;;;;;;20.25;20.25;;;;;20.32;64.77;100491.56;5039947;28;45557;-70
2023/07/02 05:51:23;;;;;;;;;31.00;27.00;;;;;20.41;64.15;100485.44;5059098;28;45582;-71
2023/07/02 05:53:49;;;;;;;;;25.50;21.50;;;;;20.50;64.35;100502.50;5058959;28;46087;-72
2023/07/02 05:56:15;;;;;;;;;20.50;20.50;;;;;20.53;63.48;100510.25;5058428;28;45821;-70
2023/07/02 05:58:40;;;;;;;;;25.75;25.00;;;;;20.54;63.51;100512.81;5040704;28;45323;-77
2023/07/02 06:01:06;;;;;;;;;28.50;25.50;;;;;20.54;63.22;100506.63;5059425;28;45554;-75
2023/07/02 06:03:32;;;;;;;;;22.00;21.00;;;;;20.52;62.92;100496.06;5065152;28;46209;-72
2023/07/02 06:05:57;;;;;;;;;26.00;23.50;;;;;20.40;62.88;100495.25;5063274;28;45445;-75
2023/07/02 06:08:23;;;;;;;;;25.50;23.75;;;;;20.38;63.40;100515.91;5061672;28;45412;-73
2023/07/02 06:10:48;;;;;;;;;22.75;21.00;;;;;20.38;63.00;100497.22;5059220;28;45668;-73
2023/07/02 06:13:14;;;;;;;;;28.50;24.75;;;;;20.38;63.25;100507.06;5059130;28;45406;-72
2023/07/02 06:15:40;;;;;;;;;22.00;21.50;;;;;20.51;62.65;100504.19;5060701;28;45584;-72
2023/07/02 06:18:05;;;;;;;;;23.00;22.25;;;;;20.60;62.51;100514.13;5060085;28;45346;-71
2023/07/02 06:20:31;;;;;;;;;21.00;20.25;;;;;20.71;62.72;100514.09;5059513;28;45467;-73
2023/07/02 06:22:57;;;;;;;;;22.50;18.50;;;;;20.79;61.41;100509.94;5061935;28;45244;-74
2023/07/02 06:25:22;;;;;;;;;24.00;24.00;;;;;20.77;62.24;100522.56;5042501;28;45410;-72
2023/07/02 06:27:48;;;;;;;;;22.75;22.75;;;;;20.82;61.86;100523.88;5059843;28;45417;-73
2023/07/02 06:30:13;;;;;;;;;25.50;24.50;;;;;20.88;61.72;100519.84;5058172;28;45363;-68
2023/07/02 06:32:38;;;;;;;;;24.25;23.75;;;;;20.79;61.49;100508.09;5057369;28;46657;-72
2023/07/02 06:35:06;;;;;;;;;24.25;24.25;;;;;20.89;61.47;100534.91;5057984;28;45379;-69
2023/07/02 06:37:31;;;;;;;;;24.75;24.25;;;;;20.84;61.25;100532.63;5060220;28;45152;-70
2023/07/02 06:39:57;;;;;;;;;24.00;21.00;;;;;20.91;61.34;100543.66;5066076;28;44905;-70
2023/07/02 06:42:24;;;;;;;;;26.50;26.00;;;;;20.98;61.17;100538.63;5060794;28;46309;-73
2023/07/02 06:44:49;;;;;;;;;26.00;23.75;;;;;21.13;61.60;100539.97;5057877;28;45271;-72
2023/07/02 06:47:14;;;;;;;;;23.25;23.00;;;;;21.36;60.59;100534.50;5057233;28;45293;-74
2023/07/02 06:49:40;;;;;;;;;21.00;21.00;;;;;21.52;60.25;100544.69;5056551;28;54119;-70
2023/07/02 06:52:05;;;;;;;;;26.50;26.25;;;;;21.53;59.92;100545.56;5056193;28;46146;-69
2023/07/02 06:54:31;;;;;;;;;25.25;25.25;;;;;21.60;59.48;100547.53;5057657;28;45332;-69
2023/07/02 06:56:56;;;;;;;;;22.00;20.75;;;;;21.55;59.29;100547.09;5039090;28;45566;-74
2023/07/02 06:59:22;;;;;;;;;25.75;24.75;;;;;21.67;59.01;100541.69;5056880;28;45378;-71
2023/07/02 07:01:48;;;;;;;;;22.00;21.75;;;;;21.72;59.13;100537.63;5056667;28;46361;-70
2023/07/02 07:04:14;;;;;;;;;15.75;15.75;;;;;21.90;58.02;100553.03;5057880;28;45487;-70
2023/07/02 07:06:39;;;;;;;;;14.50;14.50;;;;;21.84;58.52;100551.78;5057311;28;45382;-71
2023/07/02 07:09:04;;;;;;;;;25.50;25.00;;;;;21.89;58.47;100540.63;5038246;28;45351;-70
2023/07/02 07:11:30;;;;;;;;;19.50;18.75;;;;;21.98;58.25;100542.50;5055869;28;47798;-70
2023/07/02 07:13:55;;;;;;;;;24.00;23.75;;;;;21.94;57.97;100550.94;5056034;28;45368;-73
2023/07/02 07:16:21;;;;;;;;;22.25;22.25;;;;;21.99;58.18;100554.06;5055974;28;45291;-71
2023/07/02 07:18:46;;;;;;;;;26.25;26.25;;;;;22.02;57.50;100545.75;5058386;28;45590;-76
2023/07/02 07:21:12;;;;;;;;;23.25;22.00;;;;;22.01;57.62;100549.41;5060905;28;46128;-72
2023/07/02 07:23:38;;;;;;;;;25.00;21.75;;;;;22.01;57.38;100557.44;5056955;28;45236;-76
2023/07/02 07:26:03;;;;;;;;;29.50;29.50;;;;;21.96;57.37;100560.53;5070922;28;44836;-71
2023/07/02 07:28:28;;;;;;;;;22.50;22.00;;;;;21.95;57.67;100550.81;5070337;28;45311;-71
2023/07/02 07:30:54;;;;;;;;;26.25;23.75;;;;;22.03;57.60;100553.63;5070331;28;45236;-72
2023/07/02 07:33:19;;;;;;;;;26.00;25.00;;;;;22.27;56.98;100559.63;5070656;28;45278;-75
2023/07/02 07:35:44;;;;;;;;;22.75;22.00;;;;;22.40;56.48;100560.19;5071968;28;45335;-72
2023/07/02 07:38:10;;;;;;;;;24.50;22.50;;;;;22.65;56.42;100549.09;5066285;28;45486;-73
2023/07/02 07:40:35;;;;;;;;;23.25;23.00;;;;;22.79;55.81;100556.72;5071961;28;45377;-70
2023/07/02 07:43:01;;;;;;;;;27.25;23.00;;;;;22.59;55.52;100524.56;5044960;28;45271;-73
2023/07/02 07:45:26;;;;;;;;;23.75;23.50;;;;;22.89;55.65;100556.72;5058044;28;45891;-73
2023/07/02 07:47:52;;;;;;;;;22.00;21.25;;;;;23.17;54.94;100563.00;5057220;28;45543;-74
2023/07/02 07:50:17;;;;;;;;;27.25;27.25;;;;;23.32;54.05;100557.19;5058912;28;45307;-76
2023/07/02 07:52:43;;;;;;;;;25.50;24.50;;;;;23.31;53.77;100553.69;5054564;28;45356;-76
2023/07/02 07:55:09;;;;;;;;;25.50;24.50;;;;;23.48;53.91;100562.81;5032796;28;45453;-72
2023/07/02 07:57:36;;;;;;;;;24.00;24.00;;;;;23.59;53.22;100572.50;5053497;28;45472;-76
2023/07/02 08:00:05;;;;;;;;;23.25;22.25;;;;;23.67;52.90;100574.47;5056207;28;46037;-69
2023/07/02 08:02:30;;;;;;;;;22.75;21.75;;;;;23.84;52.74;100578.19;5056952;28;45404;-72
2023/07/02 08:04:56;;;;;;;;;25.75;24.75;;;;;24.04;52.50;100581.66;5057470;28;45320;-83
2023/07/02 08:07:21;;;;;;;;;28.50;28.25;;;;;24.25;51.92;100572.50;5058586;28;45708;-74
2023/07/02 08:09:48;;;;;;;;;30.75;29.50;;;;;24.31;51.80;100571.06;5058111;28;46041;-75
2023/07/02 08:12:13;;;;;;;;;25.50;22.75;;;;;24.25;51.25;100564.44;5062378;28;45293;-79
2023/07/02 08:14:39;;;;;;;;;26.75;24.75;;;;;24.39;51.14;100575.66;5060379;28;45365;-70
2023/07/02 08:17:04;;;;;;;;;23.00;22.50;;;;;24.54;50.10;100574.16;5058579;28;45430;-70
2023/07/02 08:19:29;;;;;;;;;30.50;28.50;;;;;24.54;50.36;100578.66;5055996;28;46073;-73
2023/07/02 08:21:55;;;;;;;;;21.25;21.25;;;;;24.44;49.66;100568.00;5050694;28;45675;-75
2023/07/02 08:24:20;;;;;;;;;24.25;23.50;;;;;24.55;50.29;100578.53;5056302;28;45354;-73
2023/07/02 08:26:47;;;;;;;;;25.50;25.50;;;;;24.66;49.14;100574.75;5054750;28;45478;-73
2023/07/02 08:29:13;;;;;;;;;22.50;22.50;;;;;24.61;48.77;100590.50;5053941;28;45398;-78
2023/07/02 08:31:38;;;;;;;;;25.25;25.00;;;;;24.76;48.41;100580.09;5053892;28;45326;-72
2023/07/02 08:34:04;;;;;;;;;23.50;23.00;;;;;24.91;47.81;100586.59;5043026;28;45863;-75
2023/07/02 08:36:29;;;;;;;;;29.25;26.75;;;;;25.03;47.75;100589.03;5055696;28;45510;-74
2023/07/02 08:38:54;;;;;;;;;27.00;27.00;;;;;25.04;47.31;100585.34;5055221;28;49992;-71
2023/07/02 08:41:23;;;;;;;;;24.00;24.00;;;;;24.89;47.95;100591.28;5038616;28;45250;-70
2023/07/02 08:43:51;;;;;;;;;24.50;24.25;;;;;24.88;47.38;100583.34;5056006;28;45470;-74
2023/07/02 08:46:16;;;;;;;;;25.00;23.25;;;;;24.96;47.42;100585.28;5056179;28;45589;-68
2023/07/02 08:48:42;;;;;;;;;27.75;26.50;;;;;24.93;46.90;100589.97;5051025;28;46134;-74
2023/07/02 08:51:07;;;;;;;;;23.50;22.25;;;;;24.88;47.29;100588.75;5057526;28;45311;-71
2023/07/02 08:53:33;;;;;;;;;28.75;24.00;;;;;24.73;47.08;100591.97;5055832;28;45256;-74
2023/07/02 08:56:03;;;;;;;;;30.75;26.75;;;;;24.66;46.33;100590.88;5058627;28;45738;-70
2023/07/02 08:58:28;;;;;;;;;29.50;28.25;;;;;24.61;46.55;100594.03;5044396;28;47698;-70
2023/07/02 09:01:06;;;;;;;;;20.50;20.50;;;;;24.54;46.41;100601.03;5045391;28;45422;-74
2023/07/02 09:03:32;;;;;;;;;25.25;24.75;;;;;24.41;46.34;100592.50;5055336;28;45517;-67
2023/07/02 09:05:58;;;;;;;;;27.25;27.25;;;;;24.44;46.44;100593.03;5056497;28;44964;-71
2023/07/02 09:08:27;;;;;;;;;25.75;24.25;;;;;24.68;47.00;100585.38;5049824;28;45599;-67
2023/07/02 09:10:54;;;;;;;;;21.75;20.00;;;;;24.75;46.67;100573.84;5055963;28;45559;-74
2023/07/02 09:13:19;;;;;;;;;19.00;18.75;;;;;24.53;45.33;100583.22;5038824;28;45534;-69
2023/07/02 09:15:45;;;;;;;;;12.00;11.50;;;;;24.23;44.71;100573.66;5026507;28;45538;-77
2023/07/02 09:18:26;;;;;;;;;20.75;18.75;;;;;24.16;44.07;100578.78;5037114;28;46953;-70
2023/07/02 09:20:54;;;;;;;;;22.00;22.00;;;;;24.05;43.63;100578.00;5060218;28;45645;-74
2023/07/02 09:23:20;;;;;;;;;21.25;20.75;;;;;24.23;44.27;100577.16;5060686;28;45370;-74
2023/07/02 09:25:46;;;;;;;;;21.00;21.00;;;;;24.50;44.09;100575.44;5050838;28;45536;-70
2023/07/02 09:28:16;;;;;;;;;23.25;23.00;;;;;25.05;43.81;100578.97;5053299;28;45646;-72
2023/07/02 09:31:02;;;;;;;;;27.00;25.50;;;;;25.67;43.14;100562.72;5042320;28;45446;-72
2023/07/02 09:33:28;;;;;;;;;20.75;20.25;;;;;26.38;42.60;100575.94;5060925;28;45255;-81
2023/07/02 09:35:55;;;;;;;;;19.50;19.50;;;;;26.88;41.75;100572.47;5058203;28;45569;-74
2023/07/02 09:38:21;;;;;;;;;22.25;22.25;;;;;27.25;40.70;100573.78;5045326;28;46129;-79
2023/07/02 09:40:49;;;;;;;;;13.00;13.00;;;;;27.25;39.67;100569.22;5040296;28;45352;-72
2023/07/02 09:43:16;;;;;;;;;21.00;21.00;;;;;27.24;39.80;100569.41;5040963;28;45390;-79
2023/07/02 09:45:47;;;;;;;;;23.00;23.00;;;;;27.25;39.62;100571.09;5043126;28;45384;-73
2023/07/02 09:48:17;;;;;;;;;15.25;15.25;;;;;27.46;38.95;100575.09;5041685;28;45842;-69
2023/07/02 09:50:44;;;;;;;;;19.25;19.00;;;;;27.50;38.76;100568.34;5041807;28;45476;-79
2023/07/02 09:53:11;;;;;;;;;21.75;21.50;;;;;27.62;38.87;100568.84;5040458;28;45253;-69
2023/07/02 09:55:41;;;;;;;;;23.75;23.75;;;;;27.47;38.29;100583.00;5040736;28;45271;-72
2023/07/02 09:58:07;;;;;;;;;12.25;12.25;;;;;27.11;38.41;100567.22;5040290;28;46363;-74
2023/07/02 10:00:33;;;;;;;;;20.50;20.00;;;;;26.93;38.72;100570.09;5038512;28;45210;-72
2023/07/02 10:03:00;;;;;;;;;20.25;19.75;;;;;26.68;38.92;100576.31;5021070;28;45360;-69
2023/07/02 10:05:33;;;;;;;;;17.50;17.50;;;;;26.47;38.89;100584.03;5039972;28;45445;-68
2023/07/02 10:08:12;;;;;;;;;30.25;29.50;;;;;25.96;39.21;100553.38;5040240;28;46324;-68
2023/07/02 10:10:37;;;;;;;;;23.25;23.25;;;;;26.00;39.73;100583.56;5040512;28;44726;-68
2023/07/02 10:13:03;;;;;;;;;20.25;20.00;;;;;25.96;39.61;100587.59;5041049;28;45363;-71
2023/07/02 10:15:30;;;;;;;;;23.25;20.75;;;;;26.02;39.70;100553.75;5042703;28;45241;-77
2023/07/02 10:18:02;;;;;;;;;20.25;20.25;;;;;26.39;39.56;100563.31;5024745;28;48310;-71
2023/07/02 10:20:35;;;;;;;;;20.50;20.50;;;;;26.93;39.21;100570.94;5040092;28;45403;-73
2023/07/02 10:23:01;;;;;;;;;19.00;19.00;;;;;27.50;38.79;100569.19;5039066;28;45441;-78
2023/07/02 10:25:29;;;;;;;;;16.50;16.50;;;;;27.74;37.64;100563.88;5021031;28;45519;-72
2023/07/02 10:27:55;;;;;;;;;14.75;14.75;;;;;27.64;36.85;100564.91;5039747;28;45377;-70
2023/07/02 10:30:31;;;;;;;;;21.75;21.75;;;;;27.46;36.80;100561.59;5041474;28;45484;-71
2023/07/02 10:33:08;;;;;;;;;22.50;21.50;;;;;27.17;36.91;100568.41;5022320;28;45493;-79
2023/07/02 10:35:34;;;;;;;;;18.50;18.50;;;;;27.03;37.04;100569.94;5041775;28;45516;-73
2023/07/02 10:38:00;;;;;;;;;17.25;17.25;;;;;27.01;36.98;100550.38;5040656;28;46102;-77
2023/07/02 10:40:26;;;;;;;;;21.25;20.75;;;;;27.50;36.97;100561.06;5042361;28;45205;-72
2023/07/02 10:42:52;;;;;;;;;20.75;20.75;;;;;27.76;36.17;100562.69;5043113;28;45403;-73
2023/07/02 10:45:19;;;;;;;;;18.25;17.50;;;;;28.07;35.88;100553.75;5023647;28;45506;-78
2023/07/02 10:47:45;;;;;;;;;16.25;16.25;;;;;28.36;35.90;100560.34;5041995;28;46327;-70
2023/07/02 10:50:19;;;;;;;;;17.75;16.25;;;;;28.43;35.88;100558.59;5047223;28;45463;-76
2023/07/02 10:52:45;;;;;;;;;23.50;23.50;;;;;28.43;35.53;100549.66;5026637;28;45240;-75
2023/07/02 10:55:10;;;;;;;;;19.25;19.25;;;;;28.17;36.09;100558.13;5024803;28;45539;-71
2023/07/02 10:57:35;;;;;;;;;21.50;21.50;;;;;28.05;36.76;100547.69;5038542;28;46256;-71
2023/07/02 11:00:07;;;;;;;;;11.00;11.00;;;;;27.97;36.60;100556.66;5038285;28;45444;-70
2023/07/02 11:02:38;;;;;;;;;17.25;17.25;;;;;27.59;36.04;100561.91;5038596;28;45337;-78
2023/07/02 11:05:12;;;;;;;;;20.00;20.00;;;;;27.14;36.58;100555.25;5038824;28;45404;-75